KMWA/MWA METAR and TAF weather

Enter ICAO airport designator
Station Type Date Time Source
KMWA METAR 2019/09/20 19:45 UTC NOAA

KMWA 201945Z 19010KT 10SM SCT036 SCT044 BKN075 30/22 A3012


Station Type Date Time Source
KMWA Decoded METAR 2019/09/20 19:45 UTC NOAA

Marion, Williamson County Regional Airport, IL, United States (KMWA) 37-45-01N 089-00-04W
Sep 20, 2019 - 03:45 PM EDT / 2019.09.20 1945 UTC
Wind: from the S (190 degrees) at 12 MPH (10 KT):0
Visibility: 10 mile(s):0
Sky conditions: mostly cloudy
Temperature: 86 F (30 C)
Heat index: 91.8 F (33.2 C):1
Dew Point: 71 F (22 C)
Relative Humidity: 62%
Pressure (altimeter): 30.12 in. Hg (1019 hPa)
ob: KMWA 201945Z 19010KT 10SM SCT036 SCT044 BKN075 30/22 A3012
cycle: 20

Station Type Date Time Source
KMWA TAF UTC NOAA

Error!

Example: see airport list